メインページ
METAR-TAF:

METAR-TAF

空港 :

サラーラ国際空港

サラーラ, オマーン

緯度: 17-02N, 経度: 054-05E, 海抜: 20m

現時点の気象観測

当レポートは1時間8分前の10:50(UTC)に作成
の風 7kt、南東から南/南西の間で変化する
気温 29°C
湿度 55%
気圧 1016 hPa
視程10km以上
高度2500ftの雲はほとんどない

METAR: OOSA 121050Z 17007KT 140V210 9999 FEW025 29/19 Q1016 NOSIG

時間: 15:58 (11:58 UTC)

予報

当レポートは43分前の11:15(UTC)に作成
予報は12日の 12時(UTC)から 13日の 18時(UTC)まで有効
の風 7kt
視程10km以上
1,500メートル以下は雲なし、積乱雲なし
12日の 14時(UTC)から 12日の 16時(UTC)まで徐々に
変向風 3kt
13日の 00時(UTC)から 13日の 02時(UTC)まで徐々に
の風 8kt

TAF: OOSA 121115Z 1212/1318 17007KT CAVOK BECMG 1214/1216 VRB03KT BECMG 1300/1302 01008KT

4,000以上の空港の気象観測と天気予報(METAR報とTAF報)

利用可能な観測所は地図上に黄色い丸と赤い丸で示す。

丸の上にカーソルを重ねると観測所名を参照できる。

次にクリックすると気象観測と天気予報を参照できる。

マップの切り替え:黒色「×」印の緑ボタンをクリックして拡大、「-」印の緑ボタンをクリックして縮小、緑色の三角印をクリックして隣りの地図に切り替え


METAR-TAF: